CheckWX is a tool to help pilots better visualize weather data.  It is not intended as a substitute for an official pre-flight weather briefing.

07:09:52 UTC

KELN METAR
Bowers Field Airport
Ellensburg, Washington, USA
Current

17 mins ago

KELN 180653Z AUTO 31019G26KT 10SM CLR 18/10 A3003 RMK AO2 PK WND 32029/0604 SLP155 T01830100 $
Observed
Jun-18 @ 06:53 UTC
Wind
  • 310° at 19 KTS
  • Gusting to 26 KTS
Visibility
10 SM
Flight Rules
VFR
Cloud Levels
  • Clear skies
Temperature
18°C / 64°F
Dewpoint
10°C / 50°F
Humidity
60%
Altimeter
30.03" Hg
Pressure
1016.92 hPa
Previous

1 hour ago

KELN 180553Z AUTO 32020G29KT 10SM CLR 19/10 A3002 RMK AO2 PK WND 30029/0504 SLP154 T01890100 10278 20189 50004 $
Observed
Jun-18 @ 05:53 UTC
Wind
  • 320° at 20 KTS
  • Gusting to 29 KTS
Visibility
10 SM
Flight Rules
VFR
Cloud Levels
  • Clear skies
Temperature
19°C / 66°F
Dewpoint
10°C / 50°F
Humidity
56%
Altimeter
30.02" Hg
Pressure
1016.62 hPa
Previous

2 hours ago

KELN 180453Z AUTO 30018G23KT 10SM CLR 20/10 A3003 RMK AO2 PK WND 31027/0439 SLP159 T02000100 $
Observed
Jun-18 @ 04:53 UTC
Wind
  • 300° at 18 KTS
  • Gusting to 23 KTS
Visibility
10 SM
Flight Rules
VFR
Cloud Levels
  • Clear skies
Temperature
20°C / 68°F
Dewpoint
10°C / 50°F
Humidity
53%
Altimeter
30.03" Hg
Pressure
1016.92 hPa